createdAt,value
2023-01-13T00:00:50.588Z,81.59
2023-01-13T00:03:18.927Z,81.78
2023-01-13T00:05:47.430Z,81.36
2023-01-13T00:08:15.784Z,81.53
2023-01-13T00:10:48.346Z,81.49
2023-01-13T00:13:16.795Z,81.37
2023-01-13T00:15:56.240Z,81.34
2023-01-13T00:18:24.746Z,81.50
2023-01-13T00:21:00.182Z,81.21
2023-01-13T00:23:29.907Z,81.48
2023-01-13T00:25:58.863Z,81.63
2023-01-13T00:28:27.575Z,81.67
2023-01-13T00:30:58.595Z,81.66
2023-01-13T00:33:26.999Z,81.63
2023-01-13T00:35:58.928Z,81.34
2023-01-13T00:38:27.803Z,81.39
2023-01-13T00:40:57.283Z,81.55
2023-01-13T00:43:25.389Z,81.69
2023-01-13T00:45:53.822Z,81.51
2023-01-13T00:48:24.921Z,81.33
2023-01-13T00:50:57.257Z,81.60
2023-01-13T00:53:26.633Z,81.17
2023-01-13T00:56:01.229Z,81.55
2023-01-13T00:58:31.777Z,81.45
2023-01-13T01:01:01.618Z,81.62
2023-01-13T01:03:32.044Z,81.18
2023-01-13T01:06:06.185Z,81.44
2023-01-13T01:08:35.255Z,81.48
2023-01-13T01:11:04.676Z,81.33
2023-01-13T01:13:33.307Z,81.39
2023-01-13T01:16:06.808Z,81.05
2023-01-13T01:18:38.058Z,81.31
2023-01-13T01:21:08.680Z,81.17
2023-01-13T01:23:38.289Z,81.24
2023-01-13T01:26:08.624Z,81.27
2023-01-13T01:28:36.987Z,80.84
2023-01-13T01:31:08.181Z,80.93
2023-01-13T01:33:37.977Z,81.21
2023-01-13T01:36:06.696Z,80.81
2023-01-13T01:38:35.052Z,81.01
2023-01-13T01:41:03.384Z,80.89
2023-01-13T01:44:00.495Z,80.82
2023-01-13T01:46:31.274Z,80.94
2023-01-13T01:49:05.998Z,80.81
2023-01-13T01:51:39.551Z,80.69
2023-01-13T01:54:10.616Z,80.89
2023-01-13T01:56:42.915Z,80.45
2023-01-13T01:59:12.144Z,80.83
2023-01-13T02:01:42.094Z,80.39
2023-01-13T02:04:16.559Z,80.55
2023-01-13T02:06:46.891Z,80.44
2023-01-13T02:09:15.519Z,80.56
2023-01-13T02:12:01.524Z,80.75
2023-01-13T02:14:31.628Z,80.78
2023-01-13T02:17:19.379Z,80.48
2023-01-13T02:20:21.744Z,80.19
2023-01-13T02:23:45.495Z,80.29
2023-01-13T02:26:46.133Z,80.45
2023-01-13T02:29:47.220Z,80.20
2023-01-13T02:32:23.396Z,80.39
2023-01-13T02:35:04.939Z,80.06
2023-01-13T02:37:38.045Z,80.17
2023-01-13T02:40:12.610Z,80.55
2023-01-13T02:43:05.198Z,80.28
2023-01-13T02:45:40.952Z,80.14
2023-01-13T02:48:11.528Z,79.95
2023-01-13T02:50:44.427Z,80.17
2023-01-13T02:53:17.250Z,79.98
2023-01-13T02:55:48.779Z,80.31
2023-01-13T02:58:20.952Z,79.79
2023-01-13T03:00:50.835Z,79.41
2023-01-13T03:03:19.253Z,80.01
2023-01-13T03:05:51.338Z,79.38
2023-01-13T03:08:34.057Z,79.37
2023-01-13T03:11:08.458Z,79.28
2023-01-13T03:14:00.289Z,79.56
2023-01-13T03:16:38.382Z,79.61
2023-01-13T03:19:17.183Z,78.93
2023-01-13T03:21:52.517Z,79.35
2023-01-13T03:24:29.841Z,79.16
2023-01-13T03:27:03.500Z,79.30
2023-01-13T03:29:36.781Z,79.37
2023-01-13T03:32:13.531Z,78.87
2023-01-13T03:34:47.587Z,79.16
2023-01-13T03:37:21.114Z,78.63
2023-01-13T03:39:54.947Z,78.65
2023-01-13T03:42:26.083Z,78.84
2023-01-13T03:44:58.518Z,78.92
2023-01-13T03:47:33.516Z,78.84
2023-01-13T03:50:07.295Z,78.74
2023-01-13T03:52:41.491Z,78.52
2023-01-13T03:55:13.921Z,78.84
2023-01-13T03:57:47.864Z,78.65
2023-01-13T04:00:18.108Z,78.37
2023-01-13T04:02:54.323Z,78.59
2023-01-13T04:05:23.627Z,78.60
2023-01-13T04:07:59.944Z,78.29
2023-01-13T04:10:31.062Z,78.40
2023-01-13T04:13:04.389Z,78.17
2023-01-13T04:15:37.112Z,78.18
2023-01-13T04:18:18.136Z,78.24
2023-01-13T04:20:49.424Z,77.88
2023-01-13T04:23:19.101Z,78.14
2023-01-13T04:25:47.959Z,77.66
2023-01-13T04:28:16.715Z,77.99
2023-01-13T04:30:46.285Z,77.76
2023-01-13T04:33:17.647Z,77.69
2023-01-13T04:35:47.591Z,77.68
2023-01-13T04:38:17.997Z,77.55
2023-01-13T04:40:46.913Z,77.49
2023-01-13T04:43:16.101Z,77.38
2023-01-13T04:45:44.666Z,77.50
2023-01-13T04:48:13.549Z,77.88
2023-01-13T04:50:44.005Z,77.96
2023-01-13T04:53:12.346Z,77.97
2023-01-13T04:55:40.776Z,77.76
2023-01-13T04:58:10.706Z,77.62
2023-01-13T05:00:39.570Z,78.06
2023-01-13T05:03:07.954Z,77.46
2023-01-13T05:05:36.389Z,77.32
2023-01-13T05:08:06.533Z,77.57
2023-01-13T05:10:35.079Z,77.40
2023-01-13T05:13:20.919Z,77.81
2023-01-13T05:16:07.395Z,77.12
2023-01-13T05:18:36.583Z,77.59
2023-01-13T05:21:24.984Z,77.52
2023-01-13T05:24:12.244Z,77.10
2023-01-13T05:26:40.567Z,77.19
2023-01-13T05:29:08.895Z,77.43
2023-01-13T05:31:37.225Z,77.21
2023-01-13T05:34:05.616Z,77.35
2023-01-13T05:36:33.920Z,77.38
2023-01-13T05:39:05.276Z,77.96
2023-01-13T05:41:51.352Z,77.45
2023-01-13T05:44:19.713Z,77.39
2023-01-13T05:46:48.031Z,77.42
2023-01-13T05:49:16.363Z,77.38
2023-01-13T05:51:44.707Z,77.49
2023-01-13T05:54:14.774Z,77.58
2023-01-13T05:56:43.085Z,77.27
2023-01-13T05:59:11.549Z,77.63
2023-01-13T06:01:40.041Z,77.33
2023-01-13T06:04:08.407Z,77.34
2023-01-13T06:06:36.715Z,76.88
2023-01-13T06:09:05.139Z,77.02
2023-01-13T06:11:35.100Z,77.54
2023-01-13T06:14:03.433Z,77.07
2023-01-13T06:16:31.845Z,77.38
2023-01-13T06:19:00.220Z,77.66
2023-01-13T06:21:28.509Z,77.36
2023-01-13T06:23:57.450Z,77.12
2023-01-13T06:26:28.957Z,77.09
2023-01-13T06:28:58.685Z,76.97
2023-01-13T06:31:28.687Z,77.21
2023-01-13T06:34:03.157Z,77.50
2023-01-13T06:36:36.865Z,77.32
2023-01-13T06:39:05.588Z,77.56
2023-01-13T06:41:52.423Z,76.88
2023-01-13T06:44:24.530Z,76.99
2023-01-13T06:46:53.065Z,77.25
2023-01-13T06:49:21.941Z,77.00
2023-01-13T06:51:50.297Z,77.20
2023-01-13T06:54:18.661Z,77.15
2023-01-13T06:56:47.002Z,77.05
2023-01-13T06:59:15.413Z,77.13
2023-01-13T07:01:45.217Z,76.81
2023-01-13T07:04:13.827Z,76.92
2023-01-13T07:06:42.130Z,77.13
2023-01-13T07:09:10.587Z,76.51
2023-01-13T07:11:38.974Z,77.10
2023-01-13T07:14:25.041Z,76.63
2023-01-13T07:16:54.818Z,77.17
2023-01-13T07:19:24.203Z,76.44
2023-01-13T07:21:53.119Z,76.69
2023-01-13T07:24:22.463Z,77.04
2023-01-13T07:26:52.079Z,76.57
2023-01-13T07:29:20.837Z,77.01
2023-01-13T07:31:50.251Z,76.99
2023-01-13T07:34:20.134Z,76.72
2023-01-13T07:36:48.510Z,76.39
2023-01-13T07:39:16.837Z,76.61
2023-01-13T07:42:02.577Z,76.39
2023-01-13T07:44:30.962Z,76.47
2023-01-13T07:46:59.292Z,76.77
2023-01-13T07:49:28.980Z,76.94
2023-01-13T07:51:57.345Z,76.59
2023-01-13T07:54:39.798Z,76.45
2023-01-13T07:57:09.639Z,76.67
2023-01-13T07:59:38.058Z,76.83
2023-01-13T08:02:06.553Z,76.12
2023-01-13T08:04:36.660Z,76.40
2023-01-13T08:07:06.526Z,76.28
2023-01-13T08:09:35.033Z,76.15
2023-01-13T08:12:20.920Z,75.88
2023-01-13T08:14:50.242Z,75.97
2023-01-13T08:17:20.438Z,75.79
2023-01-13T08:19:50.365Z,76.25
2023-01-13T08:22:18.779Z,75.84
2023-01-13T08:24:47.126Z,76.13
2023-01-13T08:27:15.624Z,75.85
2023-01-13T08:29:44.181Z,75.63
2023-01-13T08:32:12.532Z,75.29
2023-01-13T08:34:40.866Z,75.77
2023-01-13T08:37:10.616Z,75.11
2023-01-13T08:39:38.964Z,75.54
2023-01-13T08:42:07.369Z,74.92
2023-01-13T08:44:35.861Z,75.16
2023-01-13T08:47:04.576Z,74.51
2023-01-13T08:49:32.934Z,74.76
2023-01-13T08:52:01.271Z,74.75
2023-01-13T08:54:31.013Z,74.40
2023-01-13T08:56:59.412Z,74.84
2023-01-13T08:59:27.763Z,74.69
2023-01-13T09:01:56.393Z,74.58
2023-01-13T09:04:27.708Z,74.66
2023-01-13T09:06:56.997Z,74.15
2023-01-13T09:09:27.667Z,74.62
2023-01-13T09:12:15.101Z,74.27
2023-01-13T09:14:43.750Z,74.56
2023-01-13T09:17:12.145Z,74.85
2023-01-13T09:19:40.554Z,74.47
2023-01-13T09:22:09.022Z,74.94
2023-01-13T09:24:37.350Z,74.63
2023-01-13T09:27:07.068Z,74.77
2023-01-13T09:29:35.426Z,74.19
2023-01-13T09:32:04.238Z,74.13
2023-01-13T09:34:46.563Z,74.24
2023-01-13T09:37:14.957Z,74.12
2023-01-13T09:39:43.415Z,74.51
2023-01-13T09:42:37.942Z,74.00
2023-01-13T09:45:10.320Z,74.19
2023-01-13T09:47:44.024Z,74.58
2023-01-13T09:50:25.643Z,74.33
2023-01-13T09:52:54.503Z,74.17
2023-01-13T09:55:30.274Z,74.39
2023-01-13T09:58:00.042Z,74.12
2023-01-13T10:00:36.607Z,73.75
2023-01-13T10:03:19.648Z,73.69
2023-01-13T10:05:56.456Z,73.97
2023-01-13T10:08:28.230Z,73.85
2023-01-13T10:10:59.445Z,73.71
2023-01-13T10:13:29.888Z,74.00
2023-01-13T10:16:24.806Z,73.90
2023-01-13T10:19:05.881Z,73.52
2023-01-13T10:22:00.264Z,73.62
2023-01-13T10:24:40.818Z,73.58
2023-01-13T10:27:17.856Z,73.53
2023-01-13T10:29:47.531Z,73.35
2023-01-13T10:32:16.023Z,73.65
2023-01-13T10:34:49.644Z,73.47
2023-01-13T10:37:23.017Z,73.20
2023-01-13T10:39:56.002Z,73.19
2023-01-13T10:42:25.595Z,72.70
2023-01-13T10:44:57.170Z,73.08
2023-01-13T10:47:28.099Z,72.97
2023-01-13T10:50:20.056Z,72.81
2023-01-13T10:53:02.723Z,72.45
2023-01-13T10:55:33.727Z,72.70
2023-01-13T10:58:15.396Z,72.21
2023-01-13T11:00:45.706Z,72.02
2023-01-13T11:03:19.530Z,71.76
2023-01-13T11:05:53.097Z,71.82
2023-01-13T11:08:23.711Z,71.18
2023-01-13T11:10:55.581Z,71.04
2023-01-13T11:13:31.380Z,71.09
2023-01-13T11:16:06.607Z,70.95
2023-01-13T11:18:51.853Z,70.91
2023-01-13T11:21:40.175Z,71.09
2023-01-13T11:24:16.556Z,70.79
2023-01-13T11:26:53.167Z,70.97
2023-01-13T11:29:28.427Z,70.96
2023-01-13T11:32:07.505Z,70.83
2023-01-13T11:34:37.726Z,71.02
2023-01-13T11:37:11.749Z,70.98
2023-01-13T11:39:49.974Z,70.92
2023-01-13T11:42:25.856Z,71.00
2023-01-13T11:45:08.291Z,70.68
2023-01-13T11:47:38.619Z,70.60
2023-01-13T11:50:16.702Z,70.60
2023-01-13T11:53:05.840Z,70.56
2023-01-13T11:55:45.213Z,70.54
2023-01-13T11:58:28.961Z,70.38
2023-01-13T12:01:06.914Z,70.25
2023-01-13T12:03:41.458Z,70.35
2023-01-13T12:06:21.021Z,70.15
2023-01-13T12:09:25.577Z,69.66
2023-01-13T12:12:20.390Z,69.90
2023-01-13T12:15:04.874Z,69.84
2023-01-13T12:17:44.638Z,69.98
2023-01-13T12:20:26.427Z,69.52
2023-01-13T12:22:57.783Z,69.62
2023-01-13T12:25:33.442Z,68.88
2023-01-13T12:28:07.811Z,68.10
2023-01-13T12:30:43.858Z,67.89
2023-01-13T12:33:21.156Z,67.87
2023-01-13T12:36:00.456Z,67.63
2023-01-13T12:38:37.241Z,66.76
2023-01-13T12:41:15.705Z,66.44
2023-01-13T12:44:20.685Z,66.94
2023-01-13T12:46:56.005Z,66.83
2023-01-13T12:49:35.391Z,66.40
2023-01-13T12:52:18.392Z,66.42
2023-01-13T12:55:08.980Z,66.45
2023-01-13T12:57:39.552Z,65.85
2023-01-13T13:00:16.998Z,64.77
2023-01-13T13:03:23.889Z,65.76
2023-01-13T13:06:00.294Z,66.88
2023-01-13T13:08:46.088Z,66.65
2023-01-13T13:11:53.963Z,66.65
2023-01-13T13:15:02.247Z,67.22
2023-01-13T13:17:42.677Z,67.38
2023-01-13T13:20:54.167Z,67.29
2023-01-13T13:23:47.986Z,67.13
2023-01-13T13:26:25.001Z,67.29
2023-01-13T13:29:21.795Z,67.53
2023-01-13T13:32:14.047Z,67.96
2023-01-13T13:34:52.380Z,68.28
2023-01-13T13:37:59.264Z,68.94
2023-01-13T13:40:49.398Z,69.73
2023-01-13T13:43:49.996Z,70.72
2023-01-13T13:46:45.033Z,71.83
2023-01-13T13:49:14.201Z,72.15
2023-01-13T13:51:49.390Z,72.67
2023-01-13T13:54:20.993Z,73.75
2023-01-13T13:56:50.804Z,74.23
2023-01-13T13:59:24.353Z,74.57
2023-01-13T14:02:01.645Z,75.33
2023-01-13T14:04:32.020Z,75.71
2023-01-13T14:07:04.408Z,75.55
2023-01-13T14:09:42.657Z,75.31
2023-01-13T14:12:18.647Z,74.11
2023-01-13T14:14:49.833Z,74.00
2023-01-13T14:17:25.001Z,75.09
2023-01-13T14:19:55.754Z,75.29
2023-01-13T14:22:24.518Z,76.20
2023-01-13T14:24:55.689Z,76.14
2023-01-13T14:27:27.894Z,75.86
2023-01-13T14:30:00.520Z,76.11
2023-01-13T14:32:34.729Z,76.49
2023-01-13T14:35:06.309Z,77.34
2023-01-13T14:37:38.689Z,77.63
2023-01-13T14:40:07.898Z,78.31
2023-01-13T14:42:36.267Z,78.48
2023-01-13T14:45:24.825Z,78.87
2023-01-13T14:47:55.167Z,78.33
2023-01-13T14:50:31.327Z,78.13
2023-01-13T14:53:01.049Z,77.39
2023-01-13T14:55:30.812Z,77.33
2023-01-13T14:58:24.354Z,77.09
2023-01-13T15:01:28.194Z,77.01
2023-01-13T15:04:16.143Z,76.71
2023-01-13T15:06:48.240Z,76.53
2023-01-13T15:09:25.854Z,76.13
2023-01-13T15:11:58.711Z,76.09
2023-01-13T15:14:33.741Z,76.25
2023-01-13T15:17:03.700Z,75.79
2023-01-13T15:19:32.027Z,76.20
2023-01-13T15:22:00.524Z,76.26
2023-01-13T15:24:28.908Z,76.20
2023-01-13T15:26:57.228Z,76.16
2023-01-13T15:29:25.728Z,76.08
2023-01-13T15:31:54.096Z,76.14
2023-01-13T15:34:23.802Z,75.90
2023-01-13T15:36:53.018Z,75.82
2023-01-13T15:39:21.388Z,76.19
2023-01-13T15:42:07.325Z,76.22
2023-01-13T15:44:52.969Z,76.56
2023-01-13T15:47:23.582Z,76.48
2023-01-13T15:49:53.338Z,76.58
2023-01-13T15:52:23.971Z,76.59
2023-01-13T15:54:53.471Z,77.11
2023-01-13T15:57:24.091Z,77.27
2023-01-13T15:59:54.278Z,77.21
2023-01-13T16:02:22.672Z,77.25
2023-01-13T16:04:53.783Z,77.63
2023-01-13T16:07:26.252Z,77.44
2023-01-13T16:09:54.578Z,77.78
2023-01-13T16:12:22.968Z,77.65
2023-01-13T16:14:51.364Z,77.70
2023-01-13T16:17:21.864Z,77.83
2023-01-13T16:19:50.736Z,77.53
2023-01-13T16:22:19.707Z,77.74
2023-01-13T16:24:49.479Z,78.06
2023-01-13T16:27:19.664Z,78.08
2023-01-13T16:29:49.196Z,78.09
2023-01-13T16:32:18.258Z,78.18
2023-01-13T16:34:46.856Z,78.12
2023-01-13T16:37:20.743Z,78.18
2023-01-13T16:39:50.725Z,78.42
2023-01-13T16:42:19.094Z,78.28
2023-01-13T16:44:48.364Z,78.34
2023-01-13T16:47:18.912Z,78.59
2023-01-13T16:49:47.387Z,78.66
2023-01-13T16:52:16.031Z,78.62
2023-01-13T16:54:44.484Z,78.44
2023-01-13T16:57:15.908Z,78.44
2023-01-13T16:59:44.394Z,78.63
2023-01-13T17:02:14.611Z,78.50
2023-01-13T17:04:43.431Z,78.61
2023-01-13T17:07:17.731Z,78.73
2023-01-13T17:09:46.149Z,78.55
2023-01-13T17:12:15.981Z,79.04
2023-01-13T17:14:44.341Z,79.10
2023-01-13T17:17:22.377Z,78.95
2023-01-13T17:19:51.093Z,78.91
2023-01-13T17:22:20.356Z,78.88
2023-01-13T17:24:48.991Z,78.89
2023-01-13T17:27:21.136Z,78.90
2023-01-13T17:29:49.579Z,79.27
2023-01-13T17:32:21.979Z,79.32
2023-01-13T17:34:51.335Z,79.37
2023-01-13T17:37:21.587Z,79.42
2023-01-13T17:39:51.162Z,78.95
2023-01-13T17:42:21.004Z,79.03
2023-01-13T17:44:50.436Z,78.48
2023-01-13T17:47:18.894Z,77.74
2023-01-13T17:49:47.389Z,77.80
2023-01-13T17:52:15.812Z,77.39
2023-01-13T17:54:44.452Z,76.84
2023-01-13T17:57:12.829Z,76.61
2023-01-13T17:59:42.803Z,76.33
2023-01-13T18:02:13.579Z,76.02
2023-01-13T18:04:42.532Z,75.58
2023-01-13T18:07:10.901Z,75.25
2023-01-13T18:09:39.329Z,74.86
2023-01-13T18:12:07.762Z,74.69
2023-01-13T18:14:36.307Z,74.56
2023-01-13T18:17:06.123Z,74.50
2023-01-13T18:19:52.237Z,74.12
2023-01-13T18:22:41.790Z,74.04
2023-01-13T18:25:30.563Z,73.73
2023-01-13T18:27:59.517Z,73.58
2023-01-13T18:30:27.911Z,73.23
2023-01-13T18:32:57.636Z,73.05
2023-01-13T18:35:26.020Z,72.90
2023-01-13T18:37:54.362Z,72.89
2023-01-13T18:40:22.941Z,72.92
2023-01-13T18:42:54.625Z,72.75
2023-01-13T18:45:25.262Z,72.57
2023-01-13T18:47:55.670Z,72.49
2023-01-13T18:50:25.905Z,72.40
2023-01-13T18:52:54.424Z,72.51
2023-01-13T18:55:23.162Z,72.43
2023-01-13T18:57:52.013Z,72.65
2023-01-13T19:00:22.188Z,72.92
2023-01-13T19:05:38.196Z,72.84
2023-01-13T19:08:06.890Z,72.70
2023-01-13T19:10:36.532Z,72.76
2023-01-13T19:13:05.257Z,72.75
2023-01-13T19:15:33.665Z,73.08
2023-01-13T19:18:02.311Z,73.04
2023-01-13T19:20:31.035Z,73.23
2023-01-13T19:23:00.764Z,73.26
2023-01-13T19:25:29.126Z,73.46
2023-01-13T19:27:57.482Z,73.45
2023-01-13T19:30:25.842Z,73.43
2023-01-13T19:32:54.350Z,73.58
2023-01-13T19:35:22.715Z,73.39
2023-01-13T19:37:51.314Z,73.66
2023-01-13T19:40:21.172Z,74.02
2023-01-13T19:43:07.087Z,73.86
2023-01-13T19:45:36.311Z,74.08
2023-01-13T19:48:06.647Z,73.88
2023-01-13T19:50:38.606Z,74.00
2023-01-13T19:53:07.497Z,73.73
2023-01-13T19:55:37.266Z,73.83
2023-01-13T19:58:08.247Z,73.96
2023-01-13T20:00:36.618Z,73.82
2023-01-13T20:03:08.141Z,73.85
2023-01-13T20:05:36.673Z,73.74
2023-01-13T20:08:05.135Z,74.29
2023-01-13T20:10:33.661Z,74.20
2023-01-13T20:13:03.405Z,74.08
2023-01-13T20:15:31.858Z,74.08
2023-01-13T20:18:00.601Z,74.46
2023-01-13T20:20:28.927Z,74.58
2023-01-13T20:22:58.163Z,74.33
2023-01-13T20:25:28.549Z,74.29
2023-01-13T20:27:58.645Z,74.66
2023-01-13T20:30:28.347Z,74.71
2023-01-13T20:32:56.905Z,74.31
2023-01-13T20:35:29.605Z,74.62
2023-01-13T20:37:58.254Z,74.29
2023-01-13T20:40:26.676Z,74.39
2023-01-13T20:42:54.732Z,74.29
2023-01-13T20:45:23.401Z,74.59
2023-01-13T20:47:54.516Z,74.31
2023-01-13T20:50:22.877Z,74.31
2023-01-13T20:52:52.552Z,73.87
2023-01-13T20:55:21.009Z,74.14
2023-01-13T20:57:50.414Z,73.72
2023-01-13T21:00:19.802Z,73.79
2023-01-13T21:02:48.198Z,74.25
2023-01-13T21:05:18.135Z,74.11
2023-01-13T21:07:46.895Z,74.60
2023-01-13T21:10:15.371Z,74.95
2023-01-13T21:13:01.324Z,75.14
2023-01-13T21:15:29.770Z,75.45
2023-01-13T21:18:15.710Z,75.64
2023-01-13T21:20:45.447Z,76.27
2023-01-13T21:23:13.841Z,76.21
2023-01-13T21:25:42.337Z,76.83
2023-01-13T21:28:12.189Z,76.57
2023-01-13T21:30:40.911Z,77.36
2023-01-13T21:33:13.327Z,77.74
2023-01-13T21:35:41.681Z,77.98
2023-01-13T21:38:13.548Z,79.01
2023-01-13T21:40:41.895Z,79.49
2023-01-13T21:43:30.858Z,79.55
2023-01-13T21:46:16.791Z,79.70
2023-01-13T21:48:45.203Z,79.78
2023-01-13T21:51:13.521Z,79.72
2023-01-13T21:53:43.184Z,79.17
2023-01-13T21:56:11.531Z,79.19
2023-01-13T21:58:40.101Z,79.53
2023-01-13T22:01:09.747Z,79.51
2023-01-13T22:03:58.869Z,79.05
2023-01-13T22:06:27.758Z,79.26
2023-01-13T22:08:59.986Z,79.41
2023-01-13T22:11:28.381Z,79.53
2023-01-13T22:14:10.168Z,79.30
2023-01-13T22:16:42.011Z,79.79
2023-01-13T22:19:11.789Z,79.61
2023-01-13T22:21:40.259Z,79.94
2023-01-13T22:24:10.688Z,80.08
2023-01-13T22:26:39.219Z,80.30
2023-01-13T22:29:07.623Z,80.43
2023-01-13T22:31:35.999Z,80.43
2023-01-13T22:34:04.416Z,79.92
2023-01-13T22:36:33.854Z,80.48
2023-01-13T22:39:02.150Z,80.25
2023-01-13T22:41:32.031Z,80.16
2023-01-13T22:44:00.399Z,80.55
2023-01-13T22:46:28.747Z,80.54
2023-01-13T22:48:57.352Z,80.18
2023-01-13T22:51:26.660Z,80.69
2023-01-13T22:53:55.728Z,80.99
2023-01-13T22:56:25.731Z,80.90
2023-01-13T22:58:56.377Z,80.95
2023-01-13T23:01:26.369Z,80.46
2023-01-13T23:03:55.325Z,80.46
2023-01-13T23:06:25.565Z,80.58
2023-01-13T23:08:54.243Z,80.33
2023-01-13T23:11:25.338Z,80.85
2023-01-13T23:13:59.499Z,80.67
2023-01-13T23:16:29.480Z,80.26
2023-01-13T23:18:58.253Z,80.82
2023-01-13T23:21:28.319Z,81.05
2023-01-13T23:23:58.681Z,80.72
2023-01-13T23:26:27.517Z,80.66
2023-01-13T23:29:01.871Z,80.55
2023-01-13T23:31:30.738Z,80.86
2023-01-13T23:33:59.516Z,80.72
2023-01-13T23:36:29.287Z,80.64
2023-01-13T23:38:59.745Z,80.12
2023-01-13T23:41:29.288Z,80.41
2023-01-13T23:43:59.256Z,80.57
2023-01-13T23:46:31.396Z,79.72
2023-01-13T23:48:59.803Z,79.90
2023-01-13T23:51:30.023Z,79.90
2023-01-13T23:53:59.447Z,79.71
2023-01-13T23:56:29.640Z,80.09
2023-01-13T23:58:58.269Z,79.41
